createdAt,value
2018-11-06T00:00:09.714Z,35.3
2018-11-06T00:00:59.916Z,35.3
2018-11-06T00:01:51.133Z,35.3
2018-11-06T00:02:40.101Z,35.3
2018-11-06T00:03:30.446Z,35.3
2018-11-06T00:04:20.731Z,35.3
2018-11-06T00:05:10.821Z,35.2
2018-11-06T00:05:59.643Z,35.3
2018-11-06T00:06:49.998Z,35.3
2018-11-06T00:25:07.380Z,35.1
2018-11-06T00:25:57.855Z,35.1
2018-11-06T00:26:47.657Z,35.1
2018-11-06T00:27:37.160Z,35.1
2018-11-06T00:28:27.400Z,35.1
2018-11-06T00:29:17.440Z,35.1
2018-11-06T00:30:07.229Z,35.1
2018-11-06T00:30:57.583Z,35.1
2018-11-06T00:31:47.462Z,35.1
2018-11-06T00:32:38.272Z,35.1
2018-11-06T00:33:26.732Z,35.1
2018-11-06T00:34:18.577Z,35.1
2018-11-06T00:35:08.164Z,35.1
2018-11-06T00:35:58.312Z,35.1
2018-11-06T00:36:48.280Z,35.1
2018-11-06T00:37:37.860Z,35.1
2018-11-06T00:38:26.697Z,35.1
2018-11-06T00:39:18.185Z,35.1
2018-11-06T00:40:07.464Z,35
2018-11-06T00:40:57.840Z,35
2018-11-06T00:41:48.079Z,35
2018-11-06T00:42:37.734Z,35
2018-11-06T00:43:27.831Z,35
2018-11-06T00:44:18.651Z,35
2018-11-06T00:45:08.028Z,35
2018-11-06T00:45:58.406Z,35
2018-11-06T00:46:46.931Z,35
2018-11-06T00:47:38.032Z,35
2018-11-06T00:48:28.200Z,35
2018-11-06T00:49:18.418Z,34.9
2018-11-06T00:50:07.932Z,34.9
2018-11-06T00:50:59.073Z,34.9
2018-11-06T00:51:49.903Z,35
2018-11-06T00:52:37.711Z,34.9
2018-11-06T00:53:28.261Z,34.9
2018-11-06T00:54:18.198Z,34.9
2018-11-06T00:55:09.396Z,34.9
2018-11-06T00:55:59.441Z,34.9
2018-11-06T00:56:49.404Z,34.9
2018-11-06T00:57:39.833Z,34.9
2018-11-06T00:58:29.248Z,34.9
2018-11-06T00:59:19.490Z,34.9
2018-11-06T01:00:09.355Z,34.9
2018-11-06T01:00:59.565Z,34.9
2018-11-06T01:01:49.990Z,34.9
2018-11-06T01:02:39.295Z,34.9
2018-11-06T01:03:29.990Z,34.9
2018-11-06T01:04:20.025Z,34.9
2018-11-06T01:05:09.675Z,34.9
2018-11-06T01:05:59.972Z,34.9
2018-11-06T01:06:49.977Z,34.9
2018-11-06T01:07:39.965Z,34.9
2018-11-06T01:08:31.164Z,34.9
2018-11-06T01:09:20.090Z,34.9
2018-11-06T01:10:10.244Z,34.8
2018-11-06T01:11:00.274Z,34.9
2018-11-06T01:11:50.850Z,34.9
2018-11-06T01:12:40.389Z,34.8
2018-11-06T01:13:30.945Z,34.8
2018-11-06T01:14:20.514Z,34.8
2018-11-06T01:15:11.323Z,34.8
2018-11-06T01:16:00.841Z,34.8
2018-11-06T01:16:50.921Z,34.8
2018-11-06T01:17:40.459Z,34.8
2018-11-06T01:18:30.849Z,34.8
2018-11-06T01:19:20.347Z,34.8
2018-11-06T01:20:11.459Z,34.8
2018-11-06T01:21:00.936Z,34.8
2018-11-06T01:21:51.552Z,34.8
2018-11-06T01:22:41.616Z,34.8
2018-11-06T01:23:30.838Z,34.8
2018-11-06T01:24:20.976Z,34.8
2018-11-06T01:25:10.045Z,34.8
2018-11-06T01:26:01.673Z,34.8
2018-11-06T01:26:51.373Z,34.8
2018-11-06T01:27:41.751Z,34.8
2018-11-06T01:28:32.341Z,34.8
2018-11-06T01:29:20.457Z,34.8
2018-11-06T01:30:11.357Z,34.8
2018-11-06T01:31:01.141Z,34.8
2018-11-06T01:31:51.138Z,34.8
2018-11-06T01:32:42.120Z,34.8
2018-11-06T01:33:32.940Z,34.7
2018-11-06T01:34:22.185Z,34.7
2018-11-06T01:35:12.537Z,34.7
2018-11-06T01:36:02.425Z,34.7
2018-11-06T01:36:52.365Z,34.7
2018-11-06T01:37:42.170Z,34.7
2018-11-06T01:38:32.733Z,34.7
2018-11-06T01:39:21.802Z,34.7
2018-11-06T01:40:12.935Z,34.7
2018-11-06T01:41:01.866Z,34.7
2018-11-06T01:41:52.723Z,34.7
2018-11-06T01:42:42.917Z,34.7
2018-11-06T01:43:33.540Z,34.6
2018-11-06T01:44:22.297Z,34.6
2018-11-06T01:45:13.070Z,34.6
2018-11-06T01:46:03.072Z,34.6
2018-11-06T01:46:52.529Z,34.6
2018-11-06T01:47:43.462Z,34.6
2018-11-06T01:48:32.730Z,34.6
2018-11-06T01:49:22.849Z,34.6
2018-11-06T01:50:12.383Z,34.6
2018-11-06T01:51:02.965Z,34.6
2018-11-06T01:51:52.869Z,34.6
2018-11-06T01:52:43.237Z,34.6
2018-11-06T01:53:33.592Z,34.6
2018-11-06T01:54:23.922Z,34.6
2018-11-06T01:55:13.395Z,34.6
2018-11-06T01:56:04.794Z,34.6
2018-11-06T01:56:52.855Z,34.6
2018-11-06T01:57:42.943Z,34.6
2018-11-06T01:58:32.864Z,34.6
2018-11-06T01:59:23.496Z,34.6
2018-11-06T02:00:14.364Z,34.6
2018-11-06T02:01:04.375Z,34.6
2018-11-06T02:01:54.465Z,34.6
2018-11-06T02:02:43.756Z,34.6
2018-11-06T02:03:33.766Z,34.5
2018-11-06T02:04:24.383Z,34.5
2018-11-06T02:05:13.844Z,34.5
2018-11-06T02:06:05.016Z,34.5
2018-11-06T02:06:54.864Z,34.5
2018-11-06T02:07:44.141Z,34.5
2018-11-06T02:08:34.204Z,34.5
2018-11-06T02:09:24.031Z,34.5
2018-11-06T02:10:13.810Z,34.5
2018-11-06T02:11:04.561Z,34.5
2018-11-06T02:11:53.679Z,34.5
2018-11-06T02:12:44.378Z,34.5
2018-11-06T02:13:34.805Z,34.4
2018-11-06T02:14:24.882Z,34.5
2018-11-06T02:15:14.183Z,34.5
2018-11-06T02:16:04.413Z,34.5
2018-11-06T02:16:54.195Z,34.4
2018-11-06T02:17:44.940Z,34.4
2018-11-06T02:18:35.457Z,34.4
2018-11-06T02:19:25.837Z,34.4
2018-11-06T02:20:15.078Z,34.4
2018-11-06T02:21:05.280Z,34.4
2018-11-06T02:21:55.763Z,34.4
2018-11-06T02:22:46.263Z,34.4
2018-11-06T02:23:34.145Z,34.4
2018-11-06T02:24:25.299Z,34.4
2018-11-06T02:25:16.160Z,34.4
2018-11-06T02:26:05.099Z,34.4
2018-11-06T02:26:55.227Z,34.4
2018-11-06T02:27:45.862Z,34.4
2018-11-06T02:28:35.692Z,34.4
2018-11-06T02:29:26.108Z,34.4
2018-11-06T02:30:16.322Z,34.4
2018-11-06T02:31:05.375Z,34.4
2018-11-06T02:31:56.981Z,34.4
2018-11-06T02:32:46.478Z,34.4
2018-11-06T02:33:35.813Z,34.4
2018-11-06T02:34:26.055Z,34.4
2018-11-06T02:35:16.700Z,34.4
2018-11-06T02:36:06.480Z,34.3
2018-11-06T02:36:56.549Z,34.3
2018-11-06T02:37:46.032Z,34.4
2018-11-06T02:38:36.334Z,34.4
2018-11-06T02:39:26.649Z,34.3
2018-11-06T02:40:16.499Z,34.3
2018-11-06T02:41:06.974Z,34.3
2018-11-06T02:41:56.349Z,34.3
2018-11-06T02:42:46.834Z,34.3
2018-11-06T02:43:37.196Z,34.3
2018-11-06T02:44:27.054Z,34.3
2018-11-06T02:45:16.886Z,34.3
2018-11-06T02:46:06.996Z,34.3
2018-11-06T02:46:57.210Z,34.3
2018-11-06T02:47:47.324Z,34.3
2018-11-06T02:48:37.068Z,34.3
2018-11-06T02:49:26.874Z,34.3
2018-11-06T02:50:17.024Z,34.3
2018-11-06T02:51:07.001Z,34.3
2018-11-06T02:51:58.205Z,34.3
2018-11-06T02:52:47.774Z,34.3
2018-11-06T02:53:37.453Z,34.2
2018-11-06T02:54:27.314Z,34.3
2018-11-06T02:55:18.133Z,34.3
2018-11-06T02:56:08.027Z,34.3
2018-11-06T02:56:57.978Z,34.2
2018-11-06T02:57:47.876Z,34.3
2018-11-06T02:58:38.364Z,34.3
2018-11-06T02:59:27.688Z,34.2
2018-11-06T03:00:18.760Z,34.2
2018-11-06T03:01:07.673Z,34.2
2018-11-06T03:01:57.620Z,34.2
2018-11-06T03:02:48.223Z,34.2
2018-11-06T03:03:37.688Z,34.2
2018-11-06T03:04:27.425Z,34.2
2018-11-06T03:05:18.793Z,34.2
2018-11-06T03:06:08.871Z,34.2
2018-11-06T03:06:58.701Z,34.2
2018-11-06T03:07:49.490Z,34.2
2018-11-06T03:08:38.546Z,34.2
2018-11-06T03:09:29.420Z,34.2
2018-11-06T03:10:19.906Z,34.2
2018-11-06T03:11:08.512Z,34.2
2018-11-06T03:11:59.350Z,34.1
2018-11-06T03:12:49.122Z,34.1
2018-11-06T03:13:38.676Z,34.1
2018-11-06T03:14:28.855Z,34.1
2018-11-06T03:15:18.755Z,34.1
2018-11-06T03:16:08.878Z,34.1
2018-11-06T03:16:58.980Z,34.1
2018-11-06T03:17:49.220Z,34.1
2018-11-06T03:18:39.675Z,34.1
2018-11-06T03:19:29.352Z,34.1
2018-11-06T03:20:19.731Z,34.1
2018-11-06T03:21:09.832Z,34.1
2018-11-06T03:21:59.754Z,34.1
2018-11-06T03:22:49.872Z,34.1
2018-11-06T03:23:40.427Z,34.1
2018-11-06T03:24:29.466Z,34.1
2018-11-06T03:25:20.327Z,34.1
2018-11-06T03:26:09.536Z,34.1
2018-11-06T03:27:00.573Z,34.1
2018-11-06T03:27:49.042Z,34.1
2018-11-06T03:28:40.253Z,34.1
2018-11-06T03:29:30.007Z,34.1
2018-11-06T03:30:19.811Z,34.1
2018-11-06T03:31:09.895Z,34
2018-11-06T03:32:00.471Z,34
2018-11-06T03:32:50.111Z,34.1
2018-11-06T03:33:40.948Z,34
2018-11-06T03:34:29.216Z,34
2018-11-06T03:35:20.006Z,34
2018-11-06T03:36:09.982Z,34
2018-11-06T03:37:00.456Z,34
2018-11-06T03:37:50.450Z,33.9
2018-11-06T03:38:40.521Z,34
2018-11-06T03:39:31.228Z,34
2018-11-06T03:40:20.349Z,34
2018-11-06T03:41:11.021Z,34
2018-11-06T03:42:00.983Z,33.9
2018-11-06T03:42:50.984Z,34
2018-11-06T03:43:40.383Z,34
2018-11-06T03:44:30.355Z,33.9
2018-11-06T03:45:21.493Z,33.9
2018-11-06T03:46:12.085Z,33.9
2018-11-06T03:47:01.386Z,33.9
2018-11-06T03:47:51.323Z,33.9
2018-11-06T03:48:41.965Z,33.9
2018-11-06T03:49:31.845Z,33.9
2018-11-06T03:50:21.358Z,33.9
2018-11-06T03:51:11.353Z,33.9
2018-11-06T03:52:01.470Z,33.9
2018-11-06T03:52:51.997Z,33.9
2018-11-06T03:53:41.218Z,33.9
2018-11-06T03:54:32.423Z,33.9
2018-11-06T03:55:21.268Z,33.9
2018-11-06T03:56:11.669Z,33.9
2018-11-06T03:57:02.217Z,33.9
2018-11-06T03:57:52.352Z,33.9
2018-11-06T03:58:42.231Z,33.9
2018-11-06T03:59:32.580Z,33.9
2018-11-06T04:00:21.560Z,33.9
2018-11-06T04:01:12.097Z,33.9
2018-11-06T04:02:01.895Z,33.9
2018-11-06T04:02:51.777Z,33.9
2018-11-06T04:03:41.984Z,33.9
2018-11-06T04:04:31.761Z,33.9
2018-11-06T04:05:22.891Z,33.8
2018-11-06T04:06:12.729Z,33.8
2018-11-06T04:07:03.025Z,33.9
2018-11-06T04:07:52.514Z,33.8
2018-11-06T04:08:42.564Z,33.8
2018-11-06T04:09:32.895Z,33.8
2018-11-06T04:10:23.389Z,33.8
2018-11-06T04:11:13.625Z,33.8
2018-11-06T04:12:03.355Z,33.8
2018-11-06T04:12:52.596Z,33.8
2018-11-06T04:13:43.226Z,33.8
2018-11-06T04:14:32.571Z,33.8
2018-11-06T04:15:23.433Z,33.8
2018-11-06T04:16:13.992Z,33.8
2018-11-06T04:17:03.738Z,33.8
2018-11-06T04:17:54.416Z,33.8
2018-11-06T04:18:43.329Z,33.8
2018-11-06T04:19:32.785Z,33.8
2018-11-06T04:20:23.456Z,33.8
2018-11-06T04:21:13.218Z,33.8
2018-11-06T04:22:04.114Z,33.8
2018-11-06T04:22:54.170Z,33.8
2018-11-06T04:23:44.319Z,33.8
2018-11-06T04:24:34.581Z,33.8
2018-11-06T04:25:25.256Z,33.7
2018-11-06T04:26:14.255Z,33.7
2018-11-06T04:27:03.938Z,33.7
2018-11-06T04:27:54.043Z,33.8
2018-11-06T04:28:44.371Z,33.8
2018-11-06T04:29:34.661Z,33.7
2018-11-06T04:30:25.001Z,33.7
2018-11-06T04:31:14.771Z,33.7
2018-11-06T04:32:04.811Z,33.7
2018-11-06T04:32:55.203Z,33.7
2018-11-06T04:33:44.666Z,33.7
2018-11-06T04:34:35.009Z,33.7
2018-11-06T04:35:25.148Z,33.7
2018-11-06T04:36:15.168Z,33.7
2018-11-06T04:54:15.919Z,33.6
2018-11-06T04:55:07.243Z,33.6
2018-11-06T04:55:55.574Z,33.6
2018-11-06T04:56:47.347Z,33.6
2018-11-06T04:57:37.124Z,33.6
2018-11-06T04:58:26.854Z,33.6
2018-11-06T04:59:17.577Z,33.6
2018-11-06T05:00:06.284Z,33.6
2018-11-06T05:00:57.179Z,33.6
2018-11-06T05:01:46.455Z,33.6
2018-11-06T05:02:35.831Z,33.5
2018-11-06T05:03:26.612Z,33.5
2018-11-06T05:04:15.692Z,33.5
2018-11-06T05:05:07.207Z,33.5
2018-11-06T05:05:57.331Z,33.5
2018-11-06T05:06:48.326Z,33.5
2018-11-06T05:07:38.375Z,33.5
2018-11-06T05:08:27.745Z,33.5
2018-11-06T05:09:17.718Z,33.5
2018-11-06T05:10:08.557Z,33.5
2018-11-06T05:10:58.991Z,33.4
2018-11-06T05:11:47.408Z,33.5
2018-11-06T05:12:37.434Z,33.5
2018-11-06T05:13:42.892Z,33.4
2018-11-06T05:14:18.703Z,33.4
2018-11-06T05:15:22.813Z,33.4
2018-11-06T05:15:57.660Z,33.4
2018-11-06T05:16:48.540Z,33.4
2018-11-06T05:17:37.978Z,33.4
2018-11-06T05:18:28.308Z,33.4
2018-11-06T05:19:18.778Z,33.4
2018-11-06T05:20:08.443Z,33.4
2018-11-06T05:20:59.347Z,33.4
2018-11-06T05:21:48.038Z,33.4
2018-11-06T05:22:38.442Z,33.4
2018-11-06T05:23:29.100Z,33.4
2018-11-06T05:24:18.209Z,33.4
2018-11-06T05:25:10.231Z,33.4
2018-11-06T05:26:49.018Z,33.4
2018-11-06T05:27:40.114Z,33.4
2018-11-06T05:28:29.497Z,33.4
2018-11-06T05:29:19.189Z,33.4
2018-11-06T05:30:09.553Z,33.4
2018-11-06T05:30:59.910Z,33.4
2018-11-06T05:31:50.073Z,33.4
2018-11-06T05:32:38.484Z,33.4
2018-11-06T09:08:46.473Z,62.6
2018-11-06T09:09:35.520Z,62.8
2018-11-06T09:10:26.877Z,62.9
2018-11-06T09:11:15.479Z,63
2018-11-06T09:12:06.162Z,63.1
2018-11-06T09:12:56.597Z,63.1
2018-11-06T09:13:46.724Z,63.2
2018-11-06T09:14:36.189Z,63.3
2018-11-06T09:15:25.739Z,63.3
2018-11-06T09:16:16.332Z,63.4
2018-11-06T09:17:07.859Z,63.4
2018-11-06T09:17:56.454Z,63.6
2018-11-06T09:18:46.299Z,63.7
2018-11-06T09:19:36.163Z,63.8
2018-11-06T09:20:26.083Z,63.8
2018-11-06T09:21:16.415Z,63.9
2018-11-06T09:22:06.749Z,64
2018-11-06T09:22:56.518Z,64.1
2018-11-06T09:23:46.891Z,64.1
2018-11-06T09:24:36.998Z,64.2
2018-11-06T09:25:26.819Z,64.3
2018-11-06T09:26:16.535Z,64.3
2018-11-06T09:27:06.321Z,64.3
2018-11-06T09:27:57.339Z,64.4
2018-11-06T09:28:47.333Z,64.4
2018-11-06T09:29:52.216Z,64.6
2018-11-06T09:30:27.683Z,64.6
2018-11-06T09:31:17.461Z,64.7
2018-11-06T09:32:06.696Z,64.8
2018-11-06T09:32:58.215Z,64.8
2018-11-06T09:33:47.111Z,64.9
2018-11-06T09:34:38.218Z,65
2018-11-06T09:35:28.360Z,65.1
2018-11-06T09:36:17.749Z,65.2
2018-11-06T09:37:08.026Z,65.3
2018-11-06T09:37:57.760Z,65.3
2018-11-06T09:38:47.670Z,65.3
2018-11-06T09:39:38.380Z,65.4
2018-11-06T09:41:18.742Z,65.5
2018-11-06T09:42:08.286Z,65.6
2018-11-06T09:42:58.788Z,65.7
2018-11-06T09:43:47.572Z,65.8
2018-11-06T09:44:38.356Z,65.9
2018-11-06T09:45:28.808Z,65.9
2018-11-06T09:46:17.915Z,65.9
2018-11-06T09:47:08.177Z,66.1
2018-11-06T09:47:58.380Z,66.1
2018-11-06T09:48:48.611Z,66.2
2018-11-06T09:49:37.857Z,66.3
2018-11-06T09:50:28.037Z,66.4
2018-11-06T09:51:18.025Z,66.4
2018-11-06T09:52:10.871Z,66.6
2018-11-06T09:52:58.387Z,66.6
2018-11-06T09:53:49.336Z,66.6
2018-11-06T09:54:39.365Z,66.8
2018-11-06T09:55:28.792Z,66.8
2018-11-06T09:56:18.939Z,66.9
2018-11-06T09:57:09.146Z,66.9
2018-11-06T09:57:59.094Z,67
2018-11-06T09:58:48.721Z,67.1
2018-11-06T09:59:39.487Z,67.1
2018-11-06T10:00:29.484Z,67.2
2018-11-06T10:01:19.691Z,67.2
2018-11-06T10:02:09.581Z,67.3
2018-11-06T10:03:00.296Z,67.3
2018-11-06T10:03:49.879Z,67.4
2018-11-06T10:04:39.446Z,67.4
2018-11-06T10:05:29.628Z,67.4
2018-11-06T10:06:21.712Z,67.5
2018-11-06T10:07:14.710Z,67.5
2018-11-06T10:08:00.881Z,67.6
2018-11-06T10:08:50.099Z,67.6
2018-11-06T10:09:40.202Z,67.7
2018-11-06T10:10:30.051Z,67.8
2018-11-06T10:11:21.058Z,67.8
2018-11-06T10:12:10.388Z,67.9
2018-11-06T10:13:00.851Z,67.9
2018-11-06T10:13:51.652Z,68
2018-11-06T10:14:39.957Z,68.1
2018-11-06T10:15:31.542Z,68.1
2018-11-06T10:16:20.928Z,68.1
2018-11-06T10:17:09.887Z,68.1
2018-11-06T10:18:01.121Z,68.1
2018-11-06T10:18:50.100Z,68.1
2018-11-06T10:19:40.920Z,68.2
2018-11-06T10:20:30.770Z,68.3
2018-11-06T10:21:22.109Z,68.3
2018-11-06T10:22:11.170Z,68.3
2018-11-06T10:23:00.875Z,68.4
2018-11-06T10:23:50.870Z,68.4
2018-11-06T10:24:41.514Z,68.5
2018-11-06T10:25:31.846Z,68.5
2018-11-06T10:26:21.655Z,68.6
2018-11-06T10:27:11.307Z,68.6
2018-11-06T10:28:00.935Z,68.7
2018-11-06T10:28:51.715Z,68.7
2018-11-06T10:29:41.614Z,68.7
2018-11-06T10:30:31.431Z,68.8
2018-11-06T10:31:21.159Z,68.8
2018-11-06T10:32:12.122Z,68.8
2018-11-06T10:33:01.680Z,68.8
2018-11-06T10:33:52.545Z,68.9
2018-11-06T10:34:41.694Z,68.9
2018-11-06T10:35:31.629Z,68.9
2018-11-06T10:36:22.772Z,68.9
2018-11-06T10:37:11.698Z,68.9
2018-11-06T10:38:01.498Z,69
2018-11-06T10:38:51.770Z,69
2018-11-06T10:39:42.291Z,69.1
2018-11-06T10:40:32.359Z,69.1
2018-11-06T10:41:21.854Z,69.1
2018-11-06T10:42:12.421Z,69.1
2018-11-06T10:43:02.431Z,69.2
2018-11-06T10:43:53.498Z,69.3
2018-11-06T10:44:42.877Z,69.3
2018-11-06T10:45:32.524Z,69.3
2018-11-06T10:46:22.679Z,69.3
2018-11-06T10:47:12.932Z,69.4
2018-11-06T10:48:02.126Z,69.4
2018-11-06T10:48:53.350Z,69.4
2018-11-06T10:49:42.894Z,69.5
2018-11-06T10:50:33.278Z,69.6
2018-11-06T10:51:23.636Z,69.6
2018-11-06T10:52:13.363Z,69.6
2018-11-06T10:53:02.766Z,69.6
2018-11-06T10:53:51.878Z,69.6
2018-11-06T10:54:43.753Z,69.6
2018-11-06T10:55:33.216Z,69.6
2018-11-06T10:56:23.605Z,69.6
2018-11-06T10:57:13.694Z,69.7
2018-11-06T10:58:03.777Z,69.8
2018-11-06T10:58:53.138Z,69.8
2018-11-06T10:59:43.398Z,69.8
2018-11-06T11:00:33.378Z,69.8
2018-11-06T11:01:24.108Z,69.9
2018-11-06T11:02:13.873Z,69.9
2018-11-06T11:03:04.067Z,69.9
2018-11-06T11:03:54.862Z,70
2018-11-06T11:04:44.268Z,70.1
2018-11-06T11:05:34.143Z,70.1
2018-11-06T11:06:23.839Z,70.1
2018-11-06T11:07:13.810Z,70.1
2018-11-06T11:08:04.361Z,70.1
2018-11-06T11:08:54.513Z,70.1
2018-11-06T11:09:44.441Z,70.2
2018-11-06T11:10:34.895Z,70.3
2018-11-06T11:11:24.817Z,70.3
2018-11-06T11:12:13.315Z,70.3
2018-11-06T11:13:05.161Z,70.3
2018-11-06T11:13:54.387Z,70.3
2018-11-06T11:14:44.660Z,70.3
2018-11-06T11:15:35.265Z,70.3
2018-11-06T11:16:26.199Z,70.3
2018-11-06T11:17:14.842Z,70.3
2018-11-06T11:18:04.312Z,70.3
2018-11-06T11:18:55.504Z,70.3
2018-11-06T11:19:44.427Z,70.4
2018-11-06T11:20:35.414Z,70.4
2018-11-06T11:21:25.531Z,70.4
2018-11-06T11:22:16.084Z,70.5
2018-11-06T11:23:05.303Z,70.5
2018-11-06T11:23:55.389Z,70.5
2018-11-06T11:24:45.659Z,70.6
2018-11-06T11:25:36.820Z,70.5
2018-11-06T11:26:25.034Z,70.5
2018-11-06T11:27:16.264Z,70.6
2018-11-06T11:28:05.307Z,70.6
2018-11-06T11:28:55.866Z,70.6
2018-11-06T11:29:45.421Z,70.6
2018-11-06T11:30:35.800Z,70.7
2018-11-06T11:31:26.546Z,70.7
2018-11-06T11:32:16.982Z,70.7
2018-11-06T11:33:06.596Z,70.7
2018-11-06T11:33:56.496Z,70.7
2018-11-06T11:34:45.521Z,70.6
2018-11-06T11:35:35.768Z,70.6
2018-11-06T11:36:27.076Z,70.6
2018-11-06T11:37:16.605Z,70.6
2018-11-06T11:38:05.975Z,70.6
2018-11-06T11:38:56.379Z,70.6
2018-11-06T11:39:47.223Z,70.5
2018-11-06T11:40:36.473Z,70.5
2018-11-06T11:41:27.501Z,70.4
2018-11-06T11:42:17.453Z,70.4
2018-11-06T11:43:06.285Z,70.4
2018-11-06T11:43:57.083Z,70.4
2018-11-06T11:44:45.932Z,70.4
2018-11-06T11:45:36.724Z,70.4
2018-11-06T11:46:26.786Z,70.4
2018-11-06T11:47:16.778Z,70.4
2018-11-06T11:48:06.709Z,70.4
2018-11-06T11:48:57.230Z,70.4
2018-11-06T11:49:47.435Z,70.4
2018-11-06T11:50:36.955Z,70.4
2018-11-06T11:51:26.620Z,70.3
2018-11-06T11:52:17.920Z,70.3
2018-11-06T11:53:07.412Z,70.2
2018-11-06T11:53:57.395Z,70.2
2018-11-06T11:54:47.575Z,70.1
2018-11-06T11:55:37.994Z,70.1
2018-11-06T11:56:28.012Z,70.1
2018-11-06T11:57:17.644Z,70
2018-11-06T11:58:07.565Z,69.9
2018-11-06T11:58:57.972Z,69.9
2018-11-06T11:59:48.708Z,69.9
2018-11-06T12:00:37.858Z,69.8
2018-11-06T12:01:28.132Z,69.7
2018-11-06T12:02:19.638Z,69.7
2018-11-06T12:03:07.165Z,69.6
2018-11-06T12:03:58.776Z,69.6
2018-11-06T12:04:47.774Z,69.5
2018-11-06T12:05:38.162Z,69.5
2018-11-06T12:06:28.444Z,69.4
2018-11-06T12:07:19.009Z,69.4
2018-11-06T12:08:09.008Z,69.4
2018-11-06T12:08:58.349Z,69.4
2018-11-06T12:09:49.202Z,69.3
2018-11-06T12:10:39.266Z,69.3
2018-11-06T12:11:29.499Z,69.3
2018-11-06T12:12:19.926Z,69.3
2018-11-06T12:13:09.438Z,69.2
2018-11-06T12:13:59.564Z,69.2
2018-11-06T12:14:49.328Z,69.1
2018-11-06T12:15:38.591Z,69.1
2018-11-06T12:16:29.706Z,69
2018-11-06T12:17:19.989Z,68.9
2018-11-06T12:18:09.499Z,68.8
2018-11-06T12:18:59.834Z,68.8
2018-11-06T12:19:49.258Z,68.8
2018-11-06T12:20:40.094Z,68.8
2018-11-06T12:21:29.587Z,68.8
2018-11-06T12:22:18.491Z,68.7
2018-11-06T12:23:10.396Z,68.7
2018-11-06T12:23:59.759Z,68.6
2018-11-06T12:24:51.775Z,68.6
2018-11-06T12:25:42.101Z,68.6
2018-11-06T12:26:30.029Z,68.5
2018-11-06T12:27:20.200Z,68.4
2018-11-06T12:28:09.685Z,68.4
2018-11-06T12:28:59.969Z,68.3
2018-11-06T12:29:50.346Z,68.3
2018-11-06T12:30:40.191Z,68.2
2018-11-06T12:31:30.628Z,68.1
2018-11-06T12:32:20.639Z,68.1
2018-11-06T12:33:10.475Z,68
2018-11-06T12:34:01.298Z,67.9
2018-11-06T12:34:51.148Z,67.9
2018-11-06T12:35:41.101Z,67.8
2018-11-06T12:36:31.420Z,67.7
2018-11-06T12:37:21.228Z,67.6
2018-11-06T12:38:10.344Z,67.6
2018-11-06T12:39:00.277Z,67.6
2018-11-06T12:39:51.515Z,67.5
2018-11-06T12:40:40.812Z,67.4
2018-11-06T12:41:31.792Z,67.4
2018-11-06T12:42:20.543Z,67.4
2018-11-06T12:43:12.146Z,67.4
2018-11-06T12:44:01.107Z,67.4
2018-11-06T12:44:50.228Z,67.3
2018-11-06T12:45:41.305Z,67.3
2018-11-06T12:46:31.387Z,67.3
2018-11-06T12:47:21.204Z,67.2
2018-11-06T12:48:10.473Z,67.1
2018-11-06T12:49:01.599Z,67.1
2018-11-06T12:49:51.397Z,67
2018-11-06T12:50:41.154Z,66.9
2018-11-06T12:51:32.246Z,66.8
2018-11-06T12:52:21.817Z,66.8
2018-11-06T12:53:11.310Z,66.7
2018-11-06T12:54:01.852Z,66.6
2018-11-06T12:54:52.396Z,66.6
2018-11-06T12:55:41.433Z,66.6
2018-11-06T12:56:32.589Z,66.4
2018-11-06T12:57:22.525Z,66.4
2018-11-06T12:58:13.036Z,66.3
2018-11-06T12:59:02.549Z,66.2
2018-11-06T12:59:51.835Z,66.1
2018-11-06T13:00:42.716Z,66
2018-11-06T13:01:32.148Z,65.9
2018-11-06T13:02:22.332Z,65.8
2018-11-06T13:03:12.917Z,65.8
2018-11-06T13:04:02.097Z,65.7
2018-11-06T13:04:52.811Z,65.6
2018-11-06T13:05:41.964Z,65.5
2018-11-06T13:06:32.883Z,65.4
2018-11-06T13:07:22.638Z,65.3
2018-11-06T13:08:12.969Z,65.3
2018-11-06T13:09:03.061Z,65.1
2018-11-06T13:09:53.962Z,65.1
2018-11-06T13:10:43.945Z,64.9
2018-11-06T13:11:33.055Z,64.8
2018-11-06T13:12:23.545Z,64.8
2018-11-06T13:13:12.813Z,64.6
2018-11-06T13:14:03.173Z,64.5
2018-11-06T13:14:57.237Z,64.4
2018-11-06T13:15:45.435Z,64.3
2018-11-06T13:16:34.651Z,64.3
2018-11-06T13:17:23.853Z,64.2
2018-11-06T13:18:13.373Z,64.1
2018-11-06T13:19:03.553Z,64
2018-11-06T13:19:53.580Z,63.9
2018-11-06T13:20:44.085Z,63.8
2018-11-06T13:21:34.197Z,63.6
2018-11-06T13:22:23.662Z,63.4
2018-11-06T13:23:14.645Z,63.3
2018-11-06T13:24:04.077Z,63.2
2018-11-06T13:24:54.099Z,63.1
2018-11-06T13:25:44.710Z,62.9
2018-11-06T13:26:35.076Z,62.8
2018-11-06T13:27:24.777Z,62.6
2018-11-06T13:28:14.312Z,62.5
2018-11-06T13:29:04.496Z,62.4
2018-11-06T13:29:55.169Z,62.3
2018-11-06T13:30:45.387Z,62.1
2018-11-06T13:31:34.365Z,62
2018-11-06T13:32:25.852Z,61.9
2018-11-06T13:33:14.739Z,61.8
2018-11-06T13:34:04.497Z,61.6
2018-11-06T13:34:55.712Z,61.5
2018-11-06T13:35:45.649Z,61.4
2018-11-06T13:36:35.527Z,61.3
2018-11-06T13:37:24.647Z,61.1
2018-11-06T13:38:15.976Z,61.1
2018-11-06T13:39:05.577Z,60.9
2018-11-06T13:39:56.132Z,60.8
2018-11-06T13:40:45.310Z,60.6
2018-11-06T13:41:36.011Z,60.5
2018-11-06T13:42:24.553Z,60.4
2018-11-06T13:43:16.267Z,60.3
2018-11-06T13:44:07.751Z,60.1
2018-11-06T13:44:57.153Z,60
2018-11-06T13:45:48.101Z,59.9
2018-11-06T13:46:35.509Z,59.8
2018-11-06T13:47:25.626Z,59.6
2018-11-06T13:48:15.043Z,59.5
2018-11-06T13:49:06.299Z,59.4
2018-11-06T13:49:56.011Z,59.3
2018-11-06T14:07:36.737Z,53.1
2018-11-06T14:08:26.167Z,52.8
2018-11-06T14:09:15.772Z,52.6
2018-11-06T14:10:07.284Z,52.3
2018-11-06T14:10:57.050Z,52.1
2018-11-06T14:11:46.649Z,51.8
2018-11-06T14:12:36.627Z,51.6
2018-11-06T14:13:26.804Z,51.4
2018-11-06T14:14:17.105Z,51.3
2018-11-06T14:15:07.432Z,51.1
2018-11-06T14:15:56.519Z,50.9
2018-11-06T14:16:47.547Z,50.8
2018-11-06T14:17:36.846Z,50.6
2018-11-06T14:18:27.235Z,50.4
2018-11-06T14:19:17.950Z,50.3
2018-11-06T14:20:07.722Z,50.1
2018-11-06T14:20:57.178Z,50
2018-11-06T14:21:48.197Z,49.9
2018-11-06T14:22:37.419Z,49.8
2018-11-06T14:23:27.544Z,49.6
2018-11-06T14:24:18.499Z,49.5
2018-11-06T14:25:07.818Z,49.4
2018-11-06T14:25:58.025Z,49.3
2018-11-06T14:26:47.959Z,49.3
2018-11-06T14:27:39.597Z,49.1
2018-11-06T14:28:28.513Z,49.1
2018-11-06T14:29:17.793Z,49
2018-11-06T14:30:08.765Z,48.9
2018-11-06T14:30:57.889Z,48.8
2018-11-06T14:31:48.512Z,48.8
2018-11-06T14:32:38.252Z,48.7
2018-11-06T14:33:27.524Z,48.6
2018-11-06T14:34:17.231Z,48.6
2018-11-06T14:35:07.770Z,48.5
2018-11-06T14:36:00.616Z,48.4
2018-11-06T14:36:48.154Z,48.4
2018-11-06T14:37:37.857Z,48.3
2018-11-06T14:38:28.270Z,48.3
2018-11-06T14:39:18.142Z,48.2
2018-11-06T14:40:07.797Z,48.2
2018-11-06T14:40:59.494Z,48.1
2018-11-06T14:41:49.021Z,48.1
2018-11-06T14:42:39.528Z,48
2018-11-06T14:43:28.824Z,47.9
2018-11-06T14:44:18.873Z,47.9
2018-11-06T14:45:08.625Z,47.9
2018-11-06T14:45:59.138Z,47.8
2018-11-06T14:46:49.115Z,47.8
2018-11-06T14:47:40.591Z,47.8
2018-11-06T14:48:30.667Z,47.7
2018-11-06T14:49:21.186Z,47.7
2018-11-06T14:50:09.743Z,47.6
2018-11-06T14:51:00.076Z,47.6
2018-11-06T14:51:49.664Z,47.6
2018-11-06T14:52:39.728Z,47.5
2018-11-06T14:53:29.830Z,47.5
2018-11-06T14:54:19.823Z,47.4
2018-11-06T14:55:10.211Z,47.4
2018-11-06T14:56:00.801Z,47.4
2018-11-06T14:56:50.284Z,47.4
2018-11-06T14:57:41.260Z,47.4
2018-11-06T14:58:30.151Z,47.3
2018-11-06T14:59:21.389Z,47.3
2018-11-06T15:00:10.831Z,47.3
2018-11-06T15:01:00.891Z,47.3
2018-11-06T15:01:50.548Z,47.2
2018-11-06T15:02:41.030Z,47.2
2018-11-06T15:03:30.598Z,47.1
2018-11-06T15:04:19.545Z,47.1
2018-11-06T15:05:10.372Z,47.1
2018-11-06T15:06:00.766Z,47.1
2018-11-06T15:06:50.928Z,47.1
2018-11-06T15:07:41.137Z,47
2018-11-06T15:08:30.425Z,47
2018-11-06T15:09:20.445Z,46.9
2018-11-06T15:10:10.858Z,46.9
2018-11-06T15:11:00.800Z,46.9
2018-11-06T15:11:51.019Z,46.9
2018-11-06T15:12:41.949Z,46.8
2018-11-06T15:13:31.797Z,46.8
2018-11-06T15:14:21.297Z,46.8
2018-11-06T15:15:11.021Z,46.7
2018-11-06T15:16:01.020Z,46.7
2018-11-06T15:16:51.440Z,46.7
2018-11-06T15:17:41.232Z,46.6
2018-11-06T15:18:31.809Z,46.6
2018-11-06T15:19:21.276Z,46.6
2018-11-06T15:20:11.630Z,46.5
2018-11-06T15:21:02.771Z,46.5
2018-11-06T15:21:52.303Z,46.4
2018-11-06T15:22:41.800Z,46.4
2018-11-06T15:23:31.736Z,46.4
2018-11-06T15:24:22.536Z,46.4
2018-11-06T15:25:12.042Z,46.3
2018-11-06T15:26:01.877Z,46.3
2018-11-06T15:26:52.119Z,46.3
2018-11-06T15:27:42.335Z,46.2
2018-11-06T15:28:32.658Z,46.2
2018-11-06T15:29:22.331Z,46.2
2018-11-06T15:30:13.651Z,46.1
2018-11-06T15:31:01.844Z,46.1
2018-11-06T15:31:52.628Z,46.1
2018-11-06T15:32:43.133Z,46.1
2018-11-06T15:33:32.276Z,46
2018-11-06T15:34:22.764Z,45.9
2018-11-06T15:35:13.376Z,45.9
2018-11-06T15:36:02.407Z,45.9
2018-11-06T15:36:53.771Z,45.9